sensor_id;sensor_type;location;lat;lon;timestamp;pressure;altitude;pressure_sealevel;temperature
61189;BMP280;47054;39.716;2.904;2023-02-15T00:01:09;101717.84;;;16.68
61189;BMP280;47054;39.716;2.904;2023-02-15T00:03:54;101711.06;;;16.71
61189;BMP280;47054;39.716;2.904;2023-02-15T00:06:39;101701.94;;;16.72
61189;BMP280;47054;39.716;2.904;2023-02-15T00:09:23;101704.72;;;16.75
61189;BMP280;47054;39.716;2.904;2023-02-15T00:12:09;101701.72;;;16.77
61189;BMP280;47054;39.716;2.904;2023-02-15T00:14:54;101695.44;;;16.73
61189;BMP280;47054;39.716;2.904;2023-02-15T00:17:39;101699.03;;;16.77
61189;BMP280;47054;39.716;2.904;2023-02-15T00:20:24;101688.31;;;16.77
61189;BMP280;47054;39.716;2.904;2023-02-15T00:23:08;101688.97;;;16.74
61189;BMP280;47054;39.716;2.904;2023-02-15T00:26:03;101671.34;;;16.73
61189;BMP280;47054;39.716;2.904;2023-02-15T00:28:48;101681.72;;;16.74
61189;BMP280;47054;39.716;2.904;2023-02-15T00:31:33;101683.59;;;16.74
61189;BMP280;47054;39.716;2.904;2023-02-15T00:34:25;101674.00;;;16.73
61189;BMP280;47054;39.716;2.904;2023-02-15T00:37:10;101665.84;;;16.69
61189;BMP280;47054;39.716;2.904;2023-02-15T00:39:56;101670.09;;;16.70
61189;BMP280;47054;39.716;2.904;2023-02-15T00:42:40;101670.72;;;16.67
61189;BMP280;47054;39.716;2.904;2023-02-15T00:45:26;101655.78;;;16.66
61189;BMP280;47054;39.716;2.904;2023-02-15T00:48:10;101653.44;;;16.65
61189;BMP280;47054;39.716;2.904;2023-02-15T00:50:58;101647.94;;;16.61
61189;BMP280;47054;39.716;2.904;2023-02-15T00:53:43;101651.41;;;16.62
61189;BMP280;47054;39.716;2.904;2023-02-15T00:56:31;101644.78;;;16.59
61189;BMP280;47054;39.716;2.904;2023-02-15T00:59:16;101641.66;;;16.57
61189;BMP280;47054;39.716;2.904;2023-02-15T01:02:00;101638.03;;;16.53
61189;BMP280;47054;39.716;2.904;2023-02-15T01:04:46;101634.94;;;16.51
61189;BMP280;47054;39.716;2.904;2023-02-15T01:07:31;101648.75;;;16.53
61189;BMP280;47054;39.716;2.904;2023-02-15T01:10:17;101627.88;;;16.47
61189;BMP280;47054;39.716;2.904;2023-02-15T01:13:03;101633.69;;;16.49
61189;BMP280;47054;39.716;2.904;2023-02-15T01:15:54;101637.91;;;16.50
61189;BMP280;47054;39.716;2.904;2023-02-15T01:18:40;101624.25;;;16.43
61189;BMP280;47054;39.716;2.904;2023-02-15T01:21:26;101635.75;;;16.43
61189;BMP280;47054;39.716;2.904;2023-02-15T01:24:14;101633.06;;;16.43
61189;BMP280;47054;39.716;2.904;2023-02-15T01:26:58;101639.38;;;16.39
61189;BMP280;47054;39.716;2.904;2023-02-15T01:29:44;101642.84;;;16.39
61189;BMP280;47054;39.716;2.904;2023-02-15T01:32:29;101638.94;;;16.37
61189;BMP280;47054;39.716;2.904;2023-02-15T01:35:13;101629.34;;;16.36
61189;BMP280;47054;39.716;2.904;2023-02-15T01:37:58;101625.13;;;16.35
61189;BMP280;47054;39.716;2.904;2023-02-15T01:40:42;101627.63;;;16.31
61189;BMP280;47054;39.716;2.904;2023-02-15T01:43:41;101628.38;;;16.32
61189;BMP280;47054;39.716;2.904;2023-02-15T01:46:37;101619.94;;;16.30
61189;BMP280;47054;39.716;2.904;2023-02-15T01:49:23;101617.88;;;16.26
61189;BMP280;47054;39.716;2.904;2023-02-15T01:52:13;101613.19;;;16.23
61189;BMP280;47054;39.716;2.904;2023-02-15T01:54:58;101617.75;;;16.23
61189;BMP280;47054;39.716;2.904;2023-02-15T01:57:45;101622.31;;;16.22
61189;BMP280;47054;39.716;2.904;2023-02-15T02:00:32;101608.66;;;16.15
61189;BMP280;47054;39.716;2.904;2023-02-15T02:03:21;101618.41;;;16.20
61189;BMP280;47054;39.716;2.904;2023-02-15T02:06:08;101612.91;;;16.16
61189;BMP280;47054;39.716;2.904;2023-02-15T02:08:53;101605.03;;;16.11
61189;BMP280;47054;39.716;2.904;2023-02-15T02:11:40;101608.66;;;16.15
61189;BMP280;47054;39.716;2.904;2023-02-15T02:14:24;101599.41;;;16.13
61189;BMP280;47054;39.716;2.904;2023-02-15T02:20:28;101597.38;;;16.10
61189;BMP280;47054;39.716;2.904;2023-02-15T02:26:42;101587.59;;;16.05
61189;BMP280;47054;39.716;2.904;2023-02-15T02:33:18;101577.88;;;16.01
61189;BMP280;47054;39.716;2.904;2023-02-15T02:45:45;101555.06;;;15.95
61189;BMP280;47054;39.716;2.904;2023-02-15T02:48:35;101561.09;;;15.92
61189;BMP280;47054;39.716;2.904;2023-02-15T02:51:20;101562.19;;;15.91
61189;BMP280;47054;39.716;2.904;2023-02-15T02:54:06;101546.13;;;15.91
61189;BMP280;47054;39.716;2.904;2023-02-15T02:56:51;101560.31;;;15.91
61189;BMP280;47054;39.716;2.904;2023-02-15T02:59:42;101551.69;;;15.86
61189;BMP280;47054;39.716;2.904;2023-02-15T03:02:36;101555.28;;;15.90
61189;BMP280;47054;39.716;2.904;2023-02-15T03:05:24;101546.50;;;15.81
61189;BMP280;47054;39.716;2.904;2023-02-15T03:08:14;101553.69;;;15.89
61189;BMP280;47054;39.716;2.904;2023-02-15T03:11:06;101546.00;;;15.87
61189;BMP280;47054;39.716;2.904;2023-02-15T03:13:51;101542.88;;;15.85
61189;BMP280;47054;39.716;2.904;2023-02-15T03:16:39;101541.28;;;15.84
61189;BMP280;47054;39.716;2.904;2023-02-15T03:19:28;101536.28;;;15.83
61189;BMP280;47054;39.716;2.904;2023-02-15T03:22:20;101529.03;;;15.83
61189;BMP280;47054;39.716;2.904;2023-02-15T03:28:01;101527.31;;;15.79
61189;BMP280;47054;39.716;2.904;2023-02-15T03:30:52;101534.88;;;15.77
61189;BMP280;47054;39.716;2.904;2023-02-15T03:33:41;101522.63;;;15.76
61189;BMP280;47054;39.716;2.904;2023-02-15T03:42:31;101522.63;;;15.76
61189;BMP280;47054;39.716;2.904;2023-02-15T03:45:24;101523.59;;;15.71
61189;BMP280;47054;39.716;2.904;2023-02-15T03:48:09;101523.75;;;15.66
61189;BMP280;47054;39.716;2.904;2023-02-15T03:50:58;101526.91;;;15.68
61189;BMP280;47054;39.716;2.904;2023-02-15T03:54:15;101525.97;;;15.64
61189;BMP280;47054;39.716;2.904;2023-02-15T03:57:27;101525.66;;;15.66
61189;BMP280;47054;39.716;2.904;2023-02-15T04:00:35;101530.22;;;15.65
61189;BMP280;47054;39.716;2.904;2023-02-15T04:03:56;101520.63;;;15.64
61189;BMP280;47054;39.716;2.904;2023-02-15T04:06:41;101524.38;;;15.63
61189;BMP280;47054;39.716;2.904;2023-02-15T04:09:26;101517.94;;;15.64
61189;BMP280;47054;39.716;2.904;2023-02-15T04:12:30;101521.72;;;15.63
61189;BMP280;47054;39.716;2.904;2023-02-15T04:15:15;101512.91;;;15.63
61189;BMP280;47054;39.716;2.904;2023-02-15T04:18:18;101517.81;;;15.61
61189;BMP280;47054;39.716;2.904;2023-02-15T04:21:02;101522.81;;;15.62
61189;BMP280;47054;39.716;2.904;2023-02-15T04:24:05;101517.03;;;15.60
61189;BMP280;47054;39.716;2.904;2023-02-15T04:27:08;101529.59;;;15.60
61189;BMP280;47054;39.716;2.904;2023-02-15T04:29:56;101529.47;;;15.56
61189;BMP280;47054;39.716;2.904;2023-02-15T04:32:40;101534.16;;;15.59
61189;BMP280;47054;39.716;2.904;2023-02-15T04:35:25;101531.66;;;15.54
61189;BMP280;47054;39.716;2.904;2023-02-15T04:38:10;101534.47;;;15.58
61189;BMP280;47054;39.716;2.904;2023-02-15T04:40:54;101533.69;;;15.57
61189;BMP280;47054;39.716;2.904;2023-02-15T04:43:39;101532.91;;;15.57
61189;BMP280;47054;39.716;2.904;2023-02-15T04:46:23;101530.09;;;15.53
61189;BMP280;47054;39.716;2.904;2023-02-15T04:49:08;101533.69;;;15.57
61189;BMP280;47054;39.716;2.904;2023-02-15T04:51:52;101540.91;;;15.57
61189;BMP280;47054;39.716;2.904;2023-02-15T04:54:37;101534.03;;;15.56
61189;BMP280;47054;39.716;2.904;2023-02-15T04:57:22;101533.25;;;15.55
61189;BMP280;47054;39.716;2.904;2023-02-15T05:00:07;101539.38;;;15.56
61189;BMP280;47054;39.716;2.904;2023-02-15T05:02:54;101541.09;;;15.52
61189;BMP280;47054;39.716;2.904;2023-02-15T05:05:39;101536.22;;;15.54
61189;BMP280;47054;39.716;2.904;2023-02-15T05:08:24;101537.97;;;15.50
61189;BMP280;47054;39.716;2.904;2023-02-15T05:11:10;101535.44;;;15.53
61189;BMP280;47054;39.716;2.904;2023-02-15T05:13:54;101540.00;;;15.53
61189;BMP280;47054;39.716;2.904;2023-02-15T05:16:39;101543.00;;;15.51
61189;BMP280;47054;39.716;2.904;2023-02-15T05:19:23;101545.66;;;15.51
61189;BMP280;47054;39.716;2.904;2023-02-15T05:22:08;101533.75;;;15.49
61189;BMP280;47054;39.716;2.904;2023-02-15T05:24:53;101525.41;;;15.50
61189;BMP280;47054;39.716;2.904;2023-02-15T05:27:56;101526.81;;;15.48
61189;BMP280;47054;39.716;2.904;2023-02-15T05:31:15;101527.91;;;15.46
61189;BMP280;47054;39.716;2.904;2023-02-15T05:34:01;101527.47;;;15.44
61189;BMP280;47054;39.716;2.904;2023-02-15T05:36:45;101535.13;;;15.46
61189;BMP280;47054;39.716;2.904;2023-02-15T05:39:29;101531.66;;;15.45
61189;BMP280;47054;39.716;2.904;2023-02-15T05:42:14;101533.63;;;15.45
61189;BMP280;47054;39.716;2.904;2023-02-15T05:44:59;101535.50;;;15.44
61189;BMP280;47054;39.716;2.904;2023-02-15T05:47:43;101536.41;;;15.40
61189;BMP280;47054;39.716;2.904;2023-02-15T05:50:28;101538.47;;;15.43
61189;BMP280;47054;39.716;2.904;2023-02-15T05:53:16;101539.25;;;15.43
61189;BMP280;47054;39.716;2.904;2023-02-15T05:56:01;101543.03;;;15.42
61189;BMP280;47054;39.716;2.904;2023-02-15T05:58:46;101539.56;;;15.42
61189;BMP280;47054;39.716;2.904;2023-02-15T06:01:32;101537.53;;;15.39
61189;BMP280;47054;39.716;2.904;2023-02-15T06:04:16;101535.19;;;15.37
61189;BMP280;47054;39.716;2.904;2023-02-15T06:07:01;101543.34;;;15.41
61189;BMP280;47054;39.716;2.904;2023-02-15T06:09:45;101539.88;;;15.40
61189;BMP280;47054;39.716;2.904;2023-02-15T06:12:30;101534.88;;;15.39
61189;BMP280;47054;39.716;2.904;2023-02-15T06:15:15;101541.63;;;15.36
61189;BMP280;47054;39.716;2.904;2023-02-15T06:18:00;101538.94;;;15.36
61189;BMP280;47054;39.716;2.904;2023-02-15T06:20:48;101541.00;;;15.39
61189;BMP280;47054;39.716;2.904;2023-02-15T06:23:32;101547.44;;;15.38
61189;BMP280;47054;39.716;2.904;2023-02-15T06:26:17;101543.22;;;15.37
61189;BMP280;47054;39.716;2.904;2023-02-15T06:29:02;101547.63;;;15.33
61189;BMP280;47054;39.716;2.904;2023-02-15T06:31:47;101558.44;;;15.37
61189;BMP280;47054;39.716;2.904;2023-02-15T06:34:31;101556.88;;;15.36
61189;BMP280;47054;39.716;2.904;2023-02-15T06:37:15;101552.59;;;15.35
61189;BMP280;47054;39.716;2.904;2023-02-15T06:40:00;101568.66;;;15.35
61189;BMP280;47054;39.716;2.904;2023-02-15T06:42:45;101572.47;;;15.34
61189;BMP280;47054;39.716;2.904;2023-02-15T06:45:30;101575.91;;;15.34
61189;BMP280;47054;39.716;2.904;2023-02-15T06:48:14;101578.91;;;15.33
61189;BMP280;47054;39.716;2.904;2023-02-15T06:50:59;101574.34;;;15.33
61189;BMP280;47054;39.716;2.904;2023-02-15T06:53:44;101575.44;;;15.32
61189;BMP280;47054;39.716;2.904;2023-02-15T06:56:29;101581.09;;;15.31
61189;BMP280;47054;39.716;2.904;2023-02-15T06:59:14;101578.44;;;15.31
61189;BMP280;47054;39.716;2.904;2023-02-15T07:01:58;101593.69;;;15.30
61189;BMP280;47054;39.716;2.904;2023-02-15T07:04:43;101586.44;;;15.31
61189;BMP280;47054;39.716;2.904;2023-02-15T07:07:27;101590.22;;;15.30
61189;BMP280;47054;39.716;2.904;2023-02-15T07:10:11;101593.69;;;15.30
61189;BMP280;47054;39.716;2.904;2023-02-15T07:12:56;101592.09;;;15.29
61189;BMP280;47054;39.716;2.904;2023-02-15T07:15:40;101602.00;;;15.29
61189;BMP280;47054;39.716;2.904;2023-02-15T07:18:25;101593.97;;;15.29
61189;BMP280;47054;39.716;2.904;2023-02-15T07:21:09;101597.00;;;15.27
61189;BMP280;47054;39.716;2.904;2023-02-15T07:23:56;101582.81;;;15.18
61189;BMP280;47054;39.716;2.904;2023-02-15T07:26:42;101604.22;;;15.27
61189;BMP280;47054;39.716;2.904;2023-02-15T07:29:27;101599.50;;;15.24
61189;BMP280;47054;39.716;2.904;2023-02-15T07:32:11;101595.41;;;15.26
61189;BMP280;47054;39.716;2.904;2023-02-15T07:34:57;101602.63;;;15.26
61189;BMP280;47054;39.716;2.904;2023-02-15T07:37:41;101596.50;;;15.25
61189;BMP280;47054;39.716;2.904;2023-02-15T07:40:26;101597.59;;;15.24
61189;BMP280;47054;39.716;2.904;2023-02-15T07:43:11;101597.59;;;15.24
61189;BMP280;47054;39.716;2.904;2023-02-15T07:46:04;101592.59;;;15.23
61189;BMP280;47054;39.716;2.904;2023-02-15T07:48:50;101589.56;;;15.24
61189;BMP280;47054;39.716;2.904;2023-02-15T07:51:34;101591.00;;;15.22
61189;BMP280;47054;39.716;2.904;2023-02-15T07:54:19;101590.22;;;15.21
61189;BMP280;47054;39.716;2.904;2023-02-15T07:57:04;101594.47;;;15.22
61189;BMP280;47054;39.716;2.904;2023-02-15T07:59:49;101593.69;;;15.22
61189;BMP280;47054;39.716;2.904;2023-02-15T08:02:33;101590.22;;;15.21
61189;BMP280;47054;39.716;2.904;2023-02-15T08:05:21;101590.53;;;15.20
61189;BMP280;47054;39.716;2.904;2023-02-15T08:08:07;101591.00;;;15.22
61189;BMP280;47054;39.716;2.904;2023-02-15T08:10:51;101584.88;;;15.21
61189;BMP280;47054;39.716;2.904;2023-02-15T08:16:52;101587.09;;;15.19
61189;BMP280;47054;39.716;2.904;2023-02-15T08:19:37;101589.31;;;15.17
61189;BMP280;47054;39.716;2.904;2023-02-15T08:22:21;101584.56;;;15.14
61189;BMP280;47054;39.716;2.904;2023-02-15T08:25:06;101589.31;;;15.17
61189;BMP280;47054;39.716;2.904;2023-02-15T08:27:51;101592.00;;;15.17
61189;BMP280;47054;39.716;2.904;2023-02-15T08:30:35;101588.53;;;15.17
61189;BMP280;47054;39.716;2.904;2023-02-15T08:33:20;101592.00;;;15.17
61189;BMP280;47054;39.716;2.904;2023-02-15T08:36:05;101585.84;;;15.17
61189;BMP280;47054;39.716;2.904;2023-02-15T08:38:50;101597.34;;;15.17
61189;BMP280;47054;39.716;2.904;2023-02-15T08:41:36;101591.50;;;15.15
61189;BMP280;47054;39.716;2.904;2023-02-15T08:44:21;101592.00;;;15.17
61189;BMP280;47054;39.716;2.904;2023-02-15T08:47:06;101592.56;;;15.14
61189;BMP280;47054;39.716;2.904;2023-02-15T08:49:51;101592.00;;;15.17
61189;BMP280;47054;39.716;2.904;2023-02-15T08:52:36;101590.41;;;15.16
61189;BMP280;47054;39.716;2.904;2023-02-15T08:55:21;101591.50;;;15.15
61189;BMP280;47054;39.716;2.904;2023-02-15T08:58:05;101587.09;;;15.11
61189;BMP280;47054;39.716;2.904;2023-02-15T09:00:51;101584.56;;;15.14
61189;BMP280;47054;39.716;2.904;2023-02-15T09:03:36;101593.38;;;15.15
61189;BMP280;47054;39.716;2.904;2023-02-15T09:06:21;101598.72;;;15.15
61189;BMP280;47054;39.716;2.904;2023-02-15T09:09:07;101600.59;;;15.14
61189;BMP280;47054;39.716;2.904;2023-02-15T09:11:52;101600.59;;;15.14
61189;BMP280;47054;39.716;2.904;2023-02-15T09:14:36;101597.16;;;15.14
61189;BMP280;47054;39.716;2.904;2023-02-15T09:17:21;101598.25;;;15.13
61189;BMP280;47054;39.716;2.904;2023-02-15T09:20:05;101597.00;;;15.10
61189;BMP280;47054;39.716;2.904;2023-02-15T09:22:51;101600.13;;;15.12
61189;BMP280;47054;39.716;2.904;2023-02-15T09:25:37;101612.41;;;15.13
61189;BMP280;47054;39.716;2.904;2023-02-15T09:28:21;101608.13;;;15.12
61189;BMP280;47054;39.716;2.904;2023-02-15T09:31:06;101607.38;;;15.12
61189;BMP280;47054;39.716;2.904;2023-02-15T09:33:51;101611.59;;;15.13
61189;BMP280;47054;39.716;2.904;2023-02-15T09:36:38;101611.59;;;15.13
61189;BMP280;47054;39.716;2.904;2023-02-15T09:39:26;101613.47;;;15.12
61189;BMP280;47054;39.716;2.904;2023-02-15T09:45:16;101618.06;;;15.12
61189;BMP280;47054;39.716;2.904;2023-02-15T09:48:31;101627.97;;;15.11
61189;BMP280;47054;39.716;2.904;2023-02-15T10:00:32;101636.59;;;15.08
61189;BMP280;47054;39.716;2.904;2023-02-15T10:06:37;101638.47;;;15.08
61189;BMP280;47054;39.716;2.904;2023-02-15T10:13:18;101641.00;;;15.04
61189;BMP280;47054;39.716;2.904;2023-02-15T10:16:31;101638.31;;;15.04
61189;BMP280;47054;39.716;2.904;2023-02-15T10:19:37;101644.47;;;15.05
61189;BMP280;47054;39.716;2.904;2023-02-15T10:22:48;101636.44;;;15.05
61189;BMP280;47054;39.716;2.904;2023-02-15T10:31:49;101632.97;;;15.04
61189;BMP280;47054;39.716;2.904;2023-02-15T10:34:39;101633.78;;;15.05
61189;BMP280;47054;39.716;2.904;2023-02-15T11:08:11;101598.88;;;15.01
61189;BMP280;47054;39.716;2.904;2023-02-15T11:11:06;101597.47;;;15.04
61189;BMP280;47054;39.716;2.904;2023-02-15T11:13:57;101600.13;;;15.04
61189;BMP280;47054;39.716;2.904;2023-02-15T11:16:51;101600.13;;;15.04
61189;BMP280;47054;39.716;2.904;2023-02-15T11:19:46;101590.06;;;15.01
61189;BMP280;47054;39.716;2.904;2023-02-15T11:22:33;101596.69;;;15.03
61189;BMP280;47054;39.716;2.904;2023-02-15T11:25:22;101588.34;;;15.05
61189;BMP280;47054;39.716;2.904;2023-02-15T11:28:18;101588.69;;;15.03
61189;BMP280;47054;39.716;2.904;2023-02-15T11:31:13;101592.91;;;15.04
61189;BMP280;47054;39.716;2.904;2023-02-15T11:34:04;101587.56;;;15.04
61189;BMP280;47054;39.716;2.904;2023-02-15T11:36:52;101580.66;;;15.03
61189;BMP280;47054;39.716;2.904;2023-02-15T11:39:38;101578.00;;;15.03
61189;BMP280;47054;39.716;2.904;2023-02-15T11:42:24;101569.47;;;15.01
61189;BMP280;47054;39.716;2.904;2023-02-15T11:48:12;101576.88;;;15.04
61189;BMP280;47054;39.716;2.904;2023-02-15T11:50:58;101579.56;;;15.04
61189;BMP280;47054;39.716;2.904;2023-02-15T11:53:43;101570.44;;;15.05
61189;BMP280;47054;39.716;2.904;2023-02-15T11:56:31;101564.63;;;15.03
61189;BMP280;47054;39.716;2.904;2023-02-15T11:59:24;101564.31;;;15.05
61189;BMP280;47054;39.716;2.904;2023-02-15T12:02:21;101557.88;;;15.06
61189;BMP280;47054;39.716;2.904;2023-02-15T12:05:11;101556.28;;;15.05
61189;BMP280;47054;39.716;2.904;2023-02-15T12:08:19;101553.94;;;15.03
61189;BMP280;47054;39.716;2.904;2023-02-15T12:11:08;101552.38;;;15.02
61189;BMP280;47054;39.716;2.904;2023-02-15T12:13:59;101531.16;;;14.97
61189;BMP280;47054;39.716;2.904;2023-02-15T12:19:32;101533.34;;;15.04
61189;BMP280;47054;39.716;2.904;2023-02-15T12:22:35;101539.47;;;15.04
61189;BMP280;47054;39.716;2.904;2023-02-15T12:28:42;101528.31;;;15.02
61189;BMP280;47054;39.716;2.904;2023-02-15T12:31:36;101522.66;;;15.04
61189;BMP280;47054;39.716;2.904;2023-02-15T12:34:28;101518.44;;;15.03
61189;BMP280;47054;39.716;2.904;2023-02-15T12:37:23;101514.97;;;15.02
61189;BMP280;47054;39.716;2.904;2023-02-15T12:40:24;101513.38;;;15.01
61189;BMP280;47054;39.716;2.904;2023-02-15T12:43:35;101515.75;;;15.03
61189;BMP280;47054;39.716;2.904;2023-02-15T12:46:23;101509.63;;;15.02
61189;BMP280;47054;39.716;2.904;2023-02-15T12:49:19;101507.75;;;15.03
61189;BMP280;47054;39.716;2.904;2023-02-15T12:52:23;101511.50;;;15.02
61189;BMP280;47054;39.716;2.904;2023-02-15T12:55:27;101505.88;;;15.03
61189;BMP280;47054;39.716;2.904;2023-02-15T12:58:27;101501.63;;;15.02
61189;BMP280;47054;39.716;2.904;2023-02-15T13:01:16;101499.72;;;15.03
61189;BMP280;47054;39.716;2.904;2023-02-15T13:04:21;101489.03;;;15.03
61189;BMP280;47054;39.716;2.904;2023-02-15T13:07:10;101484.78;;;15.02
61189;BMP280;47054;39.716;2.904;2023-02-15T13:09:55;101478.66;;;15.01
61189;BMP280;47054;39.716;2.904;2023-02-15T13:12:46;101484.97;;;15.05
61189;BMP280;47054;39.716;2.904;2023-02-15T13:15:39;101472.69;;;15.04
61189;BMP280;47054;39.716;2.904;2023-02-15T13:18:34;101474.28;;;15.05
61189;BMP280;47054;39.716;2.904;2023-02-15T13:21:24;101476.94;;;15.05
61189;BMP280;47054;39.716;2.904;2023-02-15T13:24:20;101465.78;;;15.03
61189;BMP280;47054;39.716;2.904;2023-02-15T13:27:16;101467.34;;;15.04
61189;BMP280;47054;39.716;2.904;2023-02-15T13:30:04;101466.56;;;15.04
61189;BMP280;47054;39.716;2.904;2023-02-15T13:32:57;101457.47;;;15.05
61189;BMP280;47054;39.716;2.904;2023-02-15T13:36:07;101455.56;;;15.05
61189;BMP280;47054;39.716;2.904;2023-02-15T13:42:21;101457.47;;;15.05
61189;BMP280;47054;39.716;2.904;2023-02-15T13:48:23;101445.50;;;15.02
61189;BMP280;47054;39.716;2.904;2023-02-15T13:54:42;101448.47;;;15.01
61189;BMP280;47054;39.716;2.904;2023-02-15T14:00:31;101440.97;;;15.03
61189;BMP280;47054;39.716;2.904;2023-02-15T14:06:54;101444.44;;;15.03
61189;BMP280;47054;39.716;2.904;2023-02-15T14:09:50;101439.84;;;15.04
61189;BMP280;47054;39.716;2.904;2023-02-15T14:16:33;101433.75;;;15.03
61189;BMP280;47054;39.716;2.904;2023-02-15T14:22:26;101429.50;;;15.02
61189;BMP280;47054;39.716;2.904;2023-02-15T14:30:56;101424.16;;;15.02
61189;BMP280;47054;39.716;2.904;2023-02-15T14:33:55;101416.28;;;15.06
61189;BMP280;47054;39.716;2.904;2023-02-15T14:36:40;101422.72;;;15.05
61189;BMP280;47054;39.716;2.904;2023-02-15T14:43:07;101415.81;;;15.04
61189;BMP280;47054;39.716;2.904;2023-02-15T14:46:18;101410.97;;;15.06
61189;BMP280;47054;39.716;2.904;2023-02-15T14:51:55;101417.09;;;15.06
61189;BMP280;47054;39.716;2.904;2023-02-15T14:57:31;101410.31;;;15.09
61189;BMP280;47054;39.716;2.904;2023-02-15T15:00:31;101408.72;;;15.08
61189;BMP280;47054;39.716;2.904;2023-02-15T15:03:23;101395.34;;;15.08
61189;BMP280;47054;39.716;2.904;2023-02-15T15:06:31;101405.75;;;15.09
61189;BMP280;47054;39.716;2.904;2023-02-15T15:09:26;101409.50;;;15.08
61189;BMP280;47054;39.716;2.904;2023-02-15T15:15:06;101400.69;;;15.08
61189;BMP280;47054;39.716;2.904;2023-02-15T15:18:06;101400.28;;;15.06
61189;BMP280;47054;39.716;2.904;2023-02-15T15:20:51;101401.50;;;15.08
61189;BMP280;47054;39.716;2.904;2023-02-15T15:23:42;101406.53;;;15.10
61189;BMP280;47054;39.716;2.904;2023-02-15T15:26:30;101396.94;;;15.09
61189;BMP280;47054;39.716;2.904;2023-02-15T15:29:40;101403.06;;;15.09
61189;BMP280;47054;39.716;2.904;2023-02-15T15:32:27;101406.53;;;15.10
61189;BMP280;47054;39.716;2.904;2023-02-15T15:35:22;101411.88;;;15.10
61189;BMP280;47054;39.716;2.904;2023-02-15T15:38:46;101417.22;;;15.10
61189;BMP280;47054;39.716;2.904;2023-02-15T15:48:01;101414.56;;;15.10
61189;BMP280;47054;39.716;2.904;2023-02-15T15:50:48;101416.44;;;15.09
61189;BMP280;47054;39.716;2.904;2023-02-15T15:53:46;101432.13;;;15.11
61189;BMP280;47054;39.716;2.904;2023-02-15T15:56:36;101428.69;;;15.10
61189;BMP280;47054;39.716;2.904;2023-02-15T15:59:24;101431.66;;;15.09
61189;BMP280;47054;39.716;2.904;2023-02-15T16:02:16;101425.88;;;15.07
61189;BMP280;47054;39.716;2.904;2023-02-15T16:05:08;101429.47;;;15.11
61189;BMP280;47054;39.716;2.904;2023-02-15T16:07:53;101423.38;;;15.10
61189;BMP280;47054;39.716;2.904;2023-02-15T16:10:38;101435.59;;;15.11
61189;BMP280;47054;39.716;2.904;2023-02-15T16:13:22;101425.69;;;15.12
61189;BMP280;47054;39.716;2.904;2023-02-15T16:16:07;101437.16;;;15.12
61189;BMP280;47054;39.716;2.904;2023-02-15T16:18:52;101423.94;;;15.07
61189;BMP280;47054;39.716;2.904;2023-02-15T16:21:37;101434.34;;;15.09
61189;BMP280;47054;39.716;2.904;2023-02-15T16:25:08;101434.47;;;15.12
61189;BMP280;47054;39.716;2.904;2023-02-15T16:30:26;101440.28;;;15.14
61189;BMP280;47054;39.716;2.904;2023-02-15T16:33:16;101430.72;;;15.13
61189;BMP280;47054;39.716;2.904;2023-02-15T16:36:00;101433.72;;;15.12
61189;BMP280;47054;39.716;2.904;2023-02-15T16:39:06;101444.88;;;15.14
61189;BMP280;47054;39.716;2.904;2023-02-15T16:41:54;101439.06;;;15.12
61189;BMP280;47054;39.716;2.904;2023-02-15T16:44:39;101450.97;;;15.14
61189;BMP280;47054;39.716;2.904;2023-02-15T16:47:28;101453.66;;;15.14
61189;BMP280;47054;39.716;2.904;2023-02-15T16:50:23;101457.59;;;15.17
61189;BMP280;47054;39.716;2.904;2023-02-15T16:53:18;101460.56;;;15.15
61189;BMP280;47054;39.716;2.904;2023-02-15T16:56:05;101461.66;;;15.14
61189;BMP280;47054;39.716;2.904;2023-02-15T16:58:50;101467.50;;;15.16
61189;BMP280;47054;39.716;2.904;2023-02-15T17:01:35;101466.72;;;15.16
61189;BMP280;47054;39.716;2.904;2023-02-15T17:07:20;101465.63;;;15.17
61189;BMP280;47054;39.716;2.904;2023-02-15T17:10:26;101468.28;;;15.17
61189;BMP280;47054;39.716;2.904;2023-02-15T17:13:12;101468.59;;;15.15
61189;BMP280;47054;39.716;2.904;2023-02-15T17:18:46;101466.69;;;15.07
61189;BMP280;47054;39.716;2.904;2023-02-15T17:21:33;101476.31;;;15.17
61189;BMP280;47054;39.716;2.904;2023-02-15T17:27:19;101487.78;;;15.17
61189;BMP280;47054;39.716;2.904;2023-02-15T17:30:15;101485.84;;;15.18
61189;BMP280;47054;39.716;2.904;2023-02-15T17:33:03;101491.84;;;15.15
61189;BMP280;47054;39.716;2.904;2023-02-15T17:39:06;101489.66;;;15.17
61189;BMP280;47054;39.716;2.904;2023-02-15T17:42:02;101494.50;;;15.15
61189;BMP280;47054;39.716;2.904;2023-02-15T17:44:48;101496.88;;;15.16
61189;BMP280;47054;39.716;2.904;2023-02-15T17:47:32;101495.81;;;15.17
61189;BMP280;47054;39.716;2.904;2023-02-15T17:50:22;101500.34;;;15.17
61189;BMP280;47054;39.716;2.904;2023-02-15T17:53:08;101506.50;;;15.17
61189;BMP280;47054;39.716;2.904;2023-02-15T17:55:52;101515.22;;;15.18
61189;BMP280;47054;39.716;2.904;2023-02-15T17:58:38;101510.69;;;15.18
61189;BMP280;47054;39.716;2.904;2023-02-15T18:01:23;101511.03;;;15.17
61189;BMP280;47054;39.716;2.904;2023-02-15T18:04:26;101515.22;;;15.18
61189;BMP280;47054;39.716;2.904;2023-02-15T18:07:29;101522.16;;;15.19
61189;BMP280;47054;39.716;2.904;2023-02-15T18:10:32;101518.25;;;15.16
61189;BMP280;47054;39.716;2.904;2023-02-15T18:13:35;101525.19;;;15.17
61189;BMP280;47054;39.716;2.904;2023-02-15T18:16:24;101522.16;;;15.19
61189;BMP280;47054;39.716;2.904;2023-02-15T18:19:15;101517.31;;;15.21
61189;BMP280;47054;39.716;2.904;2023-02-15T18:22:00;101534.44;;;15.20
61189;BMP280;47054;39.716;2.904;2023-02-15T18:24:47;101529.09;;;15.20
61189;BMP280;47054;39.716;2.904;2023-02-15T18:27:31;101539.44;;;15.21
61189;BMP280;47054;39.716;2.904;2023-02-15T18:30:18;101547.47;;;15.21
61189;BMP280;47054;39.716;2.904;2023-02-15T18:33:03;101536.03;;;15.21
61189;BMP280;47054;39.716;2.904;2023-02-15T18:35:48;101537.41;;;15.18
61189;BMP280;47054;39.716;2.904;2023-02-15T18:38:34;101543.72;;;15.22
61189;BMP280;47054;39.716;2.904;2023-02-15T18:41:20;101547.94;;;15.23